createdAt,value
2019-02-28T00:00:37.181Z,49.63
2019-02-28T00:03:09.461Z,46.75
2019-02-28T00:05:40.719Z,41.98
2019-02-28T00:08:12.049Z,37.98
2019-02-28T00:10:43.392Z,33.45
2019-02-28T00:16:41.374Z,29.30
2019-02-28T00:19:26.329Z,32.70
2019-02-28T00:21:58.983Z,34.25
2019-02-28T00:24:30.767Z,38.17
2019-02-28T00:27:02.278Z,28.60
2019-02-28T00:29:34.345Z,25.85
2019-02-28T00:32:06.462Z,26.52
2019-02-28T00:34:39.221Z,24.07
2019-02-28T00:37:24.599Z,21.93
2019-02-28T00:39:54.239Z,20.97
2019-02-28T00:42:25.570Z,20.00
2019-02-28T00:44:58.138Z,20.65
2019-02-28T00:47:29.111Z,22.13
2019-02-28T00:50:00.648Z,24.90
2019-02-28T00:52:32.077Z,47.15
2019-02-28T00:55:05.437Z,32.33
2019-02-28T00:57:36.817Z,38.53
2019-02-28T01:00:08.597Z,36.77
2019-02-28T01:02:41.570Z,31.73
2019-02-28T01:05:24.451Z,32.00
2019-02-28T01:07:56.154Z,32.33
2019-02-28T01:10:27.862Z,33.20
2019-02-28T01:12:59.228Z,36.05
2019-02-28T01:15:30.703Z,36.13
2019-02-28T01:18:13.298Z,36.33
2019-02-28T01:20:50.046Z,38.67
2019-02-28T01:23:18.201Z,40.00
2019-02-28T01:25:49.369Z,35.03
2019-02-28T01:28:23.396Z,36.20
2019-02-28T01:30:53.608Z,36.75
2019-02-28T01:33:25.639Z,36.53
2019-02-28T01:35:57.122Z,39.23
2019-02-28T01:38:28.272Z,43.58
2019-02-28T01:40:59.472Z,46.05
2019-02-28T01:43:30.642Z,47.43
2019-02-28T01:46:01.826Z,48.85
2019-02-28T01:48:33.109Z,49.77
2019-02-28T01:51:04.295Z,47.98
2019-02-28T01:53:35.503Z,46.95
2019-02-28T01:56:18.232Z,47.17
2019-02-28T01:58:50.576Z,48.30
2019-02-28T02:01:33.480Z,44.60
2019-02-28T02:04:04.935Z,44.73
2019-02-28T02:06:37.358Z,44.48
2019-02-28T02:09:10.989Z,42.10
2019-02-28T02:11:41.927Z,41.85
2019-02-28T02:14:13.325Z,41.48
2019-02-28T02:16:44.608Z,42.83
2019-02-28T02:19:18.593Z,41.18
2019-02-28T02:21:49.119Z,37.55
2019-02-28T02:24:20.414Z,37.48
2019-02-28T02:26:52.028Z,35.17
2019-02-28T02:29:23.452Z,34.53
2019-02-28T02:31:54.751Z,33.90
2019-02-28T02:34:28.265Z,34.58
2019-02-28T02:36:59.324Z,37.95
2019-02-28T02:39:30.450Z,41.55
2019-02-28T02:42:02.009Z,42.73
2019-02-28T02:44:33.086Z,43.25
2019-02-28T02:47:04.910Z,44.83
2019-02-28T02:49:36.988Z,41.45
2019-02-28T02:52:08.390Z,41.83
2019-02-28T02:54:40.171Z,46.28
2019-02-28T02:57:14.060Z,45.60
2019-02-28T02:59:44.270Z,41.90
2019-02-28T03:02:15.771Z,39.95
2019-02-28T03:04:46.975Z,41.88
2019-02-28T03:07:24.655Z,44.53
2019-02-28T03:09:52.279Z,43.85
2019-02-28T03:12:23.631Z,40.78
2019-02-28T03:14:54.649Z,39.03
2019-02-28T03:17:26.072Z,36.03
2019-02-28T03:19:58.196Z,39.65
2019-02-28T03:22:30.371Z,41.42
2019-02-28T03:25:01.752Z,41.02
2019-02-28T03:27:33.453Z,40.58
2019-02-28T03:30:04.991Z,36.30
2019-02-28T03:32:42.005Z,37.35
2019-02-28T03:35:09.679Z,34.63
2019-02-28T03:37:41.147Z,36.58
2019-02-28T03:40:12.674Z,33.95
2019-02-28T03:42:44.291Z,32.38
2019-02-28T03:45:16.070Z,32.00
2019-02-28T03:47:47.561Z,31.62
2019-02-28T03:50:21.992Z,33.73
2019-02-28T03:52:53.109Z,32.53
2019-02-28T03:55:24.580Z,32.98
2019-02-28T03:58:03.703Z,31.87
2019-02-28T04:00:34.000Z,32.20
2019-02-28T04:03:03.121Z,33.98
2019-02-28T04:05:34.472Z,32.42
2019-02-28T04:08:06.012Z,32.53
2019-02-28T04:10:37.516Z,33.28
2019-02-28T04:13:08.933Z,33.42
2019-02-28T04:15:49.810Z,35.50
2019-02-28T04:18:13.462Z,35.25
2019-02-28T04:20:44.860Z,34.65
2019-02-28T04:23:16.422Z,35.10
2019-02-28T04:25:47.864Z,36.53
2019-02-28T04:28:19.231Z,35.90
2019-02-28T04:30:50.331Z,33.35
2019-02-28T04:33:21.938Z,34.80
2019-02-28T04:35:53.359Z,31.57
2019-02-28T04:38:24.749Z,31.87
2019-02-28T04:40:58.874Z,34.05
2019-02-28T04:43:29.077Z,34.83
2019-02-28T04:46:00.662Z,35.58
2019-02-28T04:48:31.987Z,38.73
2019-02-28T04:51:05.801Z,43.00
2019-02-28T04:53:36.484Z,42.85
2019-02-28T04:56:18.605Z,43.73
2019-02-28T04:58:51.699Z,38.48
2019-02-28T05:01:24.617Z,36.75
2019-02-28T05:03:56.157Z,33.10
2019-02-28T05:06:27.456Z,33.48
2019-02-28T05:08:58.716Z,31.33
2019-02-28T05:11:30.663Z,30.02
2019-02-28T05:14:02.907Z,33.28
2019-02-28T05:16:34.335Z,34.45
2019-02-28T05:19:05.838Z,34.63
2019-02-28T05:21:37.633Z,38.28
2019-02-28T05:24:09.291Z,36.93
2019-02-28T05:26:41.293Z,37.42
2019-02-28T05:29:13.047Z,35.85
2019-02-28T05:31:45.960Z,34.27
2019-02-28T05:34:17.637Z,33.73
2019-02-28T05:36:48.822Z,35.83
2019-02-28T05:39:20.305Z,38.92
2019-02-28T05:41:52.030Z,39.70
2019-02-28T05:44:23.892Z,44.20
2019-02-28T05:46:57.804Z,43.28
2019-02-28T05:49:28.094Z,49.27
2019-02-28T05:51:59.879Z,40.88
2019-02-28T05:54:31.152Z,42.55
2019-02-28T05:57:04.720Z,48.80
2019-02-28T05:59:35.680Z,46.95
2019-02-28T06:02:07.199Z,48.28
2019-02-28T06:04:38.793Z,40.98
2019-02-28T06:07:10.400Z,36.05
2019-02-28T06:09:41.551Z,34.95
2019-02-28T06:12:12.825Z,32.30
2019-02-28T06:14:43.982Z,40.30
2019-02-28T06:17:17.355Z,102.47
2019-02-28T06:19:49.064Z,55.70
2019-02-28T06:22:20.373Z,49.38
2019-02-28T06:24:51.644Z,53.85
2019-02-28T06:27:24.310Z,52.48
2019-02-28T06:29:55.786Z,48.38
2019-02-28T06:32:27.440Z,60.58
2019-02-28T06:34:59.848Z,39.65
2019-02-28T06:37:31.867Z,43.98
2019-02-28T06:40:03.119Z,49.90
2019-02-28T06:42:34.586Z,46.10
2019-02-28T06:45:06.456Z,41.10
2019-02-28T06:47:39.015Z,35.08
2019-02-28T06:50:13.002Z,54.83
2019-02-28T06:52:44.596Z,44.73
2019-02-28T06:55:20.660Z,39.92
2019-02-28T06:57:51.945Z,44.48
2019-02-28T07:00:24.747Z,56.83
2019-02-28T07:02:56.263Z,48.00
2019-02-28T07:05:27.681Z,35.98
2019-02-28T07:08:00.575Z,39.98
2019-02-28T07:10:31.743Z,46.48
2019-02-28T07:13:12.367Z,35.63
2019-02-28T07:15:43.685Z,33.67
2019-02-28T07:18:14.771Z,31.45
2019-02-28T07:20:47.268Z,35.50
2019-02-28T07:23:18.847Z,41.95
2019-02-28T07:25:49.991Z,35.45
2019-02-28T07:28:21.322Z,27.42
2019-02-28T07:30:53.579Z,39.80
2019-02-28T07:33:24.944Z,35.60
2019-02-28T07:38:39.829Z,21.52
2019-02-28T07:41:11.233Z,23.77
2019-02-28T07:43:45.864Z,25.95
2019-02-28T07:46:15.551Z,32.25
2019-02-28T07:48:47.013Z,25.40
2019-02-28T07:51:29.312Z,25.82
2019-02-28T07:54:01.751Z,24.57
2019-02-28T07:56:34.164Z,15.15
2019-02-28T07:59:06.373Z,23.27
2019-02-28T08:01:37.853Z,28.92
2019-02-28T08:04:09.475Z,24.52
2019-02-28T08:06:40.852Z,29.70
2019-02-28T08:09:24.647Z,37.70
2019-02-28T08:11:56.713Z,24.47
2019-02-28T08:14:29.172Z,19.73
2019-02-28T08:17:00.757Z,25.80
2019-02-28T08:19:33.291Z,27.22
2019-02-28T08:22:05.058Z,22.77
2019-02-28T08:24:36.690Z,21.30
2019-02-28T08:27:08.081Z,19.87
2019-02-28T08:29:44.744Z,22.65
2019-02-28T08:32:12.910Z,25.23
2019-02-28T08:34:46.653Z,14.70
2019-02-28T08:37:19.039Z,14.58
2019-02-28T08:39:51.426Z,14.50
2019-02-28T08:42:22.850Z,10.80
2019-02-28T08:44:58.978Z,13.30
2019-02-28T08:47:28.184Z,9.00
2019-02-28T08:49:59.528Z,12.43
2019-02-28T08:52:31.015Z,11.33
2019-02-28T08:55:02.913Z,13.47
2019-02-28T08:57:35.611Z,12.37
2019-02-28T09:00:08.793Z,12.47
2019-02-28T09:02:41.693Z,11.80
2019-02-28T09:05:13.867Z,14.43
2019-02-28T09:07:50.946Z,11.10
2019-02-28T09:10:19.976Z,13.87
2019-02-28T09:12:51.555Z,8.03
2019-02-28T09:15:22.904Z,7.67
2019-02-28T09:17:58.251Z,8.37
2019-02-28T09:20:27.870Z,8.70
2019-02-28T09:23:02.120Z,7.23
2019-02-28T09:25:33.250Z,12.53
2019-02-28T09:28:04.698Z,30.13
2019-02-28T09:30:38.799Z,13.80
2019-02-28T09:33:10.861Z,11.07
2019-02-28T09:35:45.533Z,8.43
2019-02-28T09:38:15.271Z,10.03
2019-02-28T09:40:46.508Z,11.67
2019-02-28T09:43:17.833Z,10.77
2019-02-28T09:45:49.151Z,15.80
2019-02-28T09:48:20.550Z,11.20
2019-02-28T09:50:57.738Z,13.53
2019-02-28T09:53:24.696Z,14.60
2019-02-28T09:55:55.876Z,11.27
2019-02-28T09:58:29.342Z,12.17
2019-02-28T10:01:00.471Z,15.13
2019-02-28T10:03:31.902Z,16.87
2019-02-28T10:06:02.977Z,12.77
2019-02-28T10:08:36.776Z,15.70
2019-02-28T10:11:07.357Z,14.73
2019-02-28T10:13:38.556Z,14.43
2019-02-28T10:16:09.946Z,12.80
2019-02-28T10:18:41.129Z,15.40
2019-02-28T10:21:12.499Z,14.00
2019-02-28T10:23:43.695Z,20.73
2019-02-28T10:26:17.222Z,10.97
2019-02-28T10:28:48.137Z,11.87
2019-02-28T10:31:22.872Z,18.57
2019-02-28T10:33:53.937Z,12.00
2019-02-28T10:36:25.172Z,12.20
2019-02-28T10:38:56.372Z,13.87
2019-02-28T10:41:31.180Z,20.67
2019-02-28T10:44:01.556Z,19.93
2019-02-28T10:46:36.047Z,14.93
2019-02-28T10:49:07.367Z,15.47
2019-02-28T10:51:38.856Z,12.70
2019-02-28T10:54:11.279Z,13.20
2019-02-28T10:56:43.570Z,17.27
2019-02-28T10:59:14.847Z,14.03
2019-02-28T11:01:46.750Z,13.40
2019-02-28T11:04:18.915Z,18.40
2019-02-28T11:06:50.397Z,10.73
2019-02-28T11:09:25.208Z,16.17
2019-02-28T11:12:19.638Z,11.93
2019-02-28T11:14:46.993Z,11.00
2019-02-28T11:17:19.749Z,10.03
2019-02-28T11:19:51.969Z,12.80
2019-02-28T11:22:23.999Z,17.30
2019-02-28T11:25:00.485Z,9.87
2019-02-28T11:27:29.808Z,9.80
2019-02-28T11:30:01.132Z,17.53
2019-02-28T11:32:32.834Z,19.17
2019-02-28T11:35:04.256Z,20.77
2019-02-28T11:37:35.761Z,13.13
2019-02-28T11:40:08.472Z,10.97
2019-02-28T11:42:40.705Z,13.30
2019-02-28T11:45:18.545Z,14.07
2019-02-28T11:47:50.756Z,12.17
2019-02-28T11:50:22.120Z,25.60
2019-02-28T11:52:53.456Z,15.73
2019-02-28T11:55:27.044Z,18.83
2019-02-28T11:57:57.911Z,17.67
2019-02-28T12:00:32.526Z,15.73
2019-02-28T12:03:05.445Z,16.57
2019-02-28T12:05:36.827Z,12.40
2019-02-28T12:08:10.300Z,12.63
2019-02-28T12:10:41.365Z,14.37
2019-02-28T12:13:12.709Z,10.57
2019-02-28T12:15:44.139Z,11.57
2019-02-28T12:18:15.810Z,9.50
2019-02-28T12:20:47.205Z,12.70
2019-02-28T12:23:24.648Z,29.53
2019-02-28T12:25:58.236Z,10.40
2019-02-28T12:28:29.776Z,22.40
2019-02-28T12:31:01.207Z,27.70
2019-02-28T12:33:32.459Z,25.50
2019-02-28T12:36:03.859Z,10.67
2019-02-28T12:38:36.409Z,8.60
2019-02-28T12:41:07.790Z,11.57
2019-02-28T12:43:40.580Z,28.83
2019-02-28T12:49:21.735Z,8.20
2019-02-28T12:51:51.583Z,9.53
2019-02-28T12:54:23.583Z,9.30
2019-02-28T12:56:55.118Z,9.87
2019-02-28T12:59:27.139Z,10.30
2019-02-28T13:01:58.980Z,11.87
2019-02-28T13:04:32.518Z,14.13
2019-02-28T13:07:15.498Z,11.67
2019-02-28T13:09:48.265Z,15.77
2019-02-28T13:12:21.355Z,12.83
2019-02-28T13:14:54.703Z,12.07
2019-02-28T13:17:28.314Z,14.40
2019-02-28T13:19:59.529Z,17.67
2019-02-28T13:22:31.433Z,20.63
2019-02-28T13:25:03.185Z,15.60
2019-02-28T13:27:34.917Z,15.97
2019-02-28T13:30:10.537Z,15.63
2019-02-28T13:32:41.261Z,18.07
2019-02-28T13:35:15.042Z,21.23
2019-02-28T13:37:46.955Z,22.83
2019-02-28T13:40:19.042Z,13.77
2019-02-28T13:42:51.069Z,13.70
2019-02-28T13:45:23.837Z,13.57
2019-02-28T13:47:56.022Z,12.87
2019-02-28T13:50:28.272Z,27.60
2019-02-28T13:53:02.554Z,21.33
2019-02-28T13:55:33.475Z,15.93
2019-02-28T13:58:05.614Z,15.47
2019-02-28T14:00:43.616Z,17.97
2019-02-28T14:03:10.870Z,15.37
2019-02-28T14:05:42.551Z,16.77
2019-02-28T14:08:14.487Z,20.00
2019-02-28T14:10:46.002Z,15.27
2019-02-28T14:13:17.736Z,35.40
2019-02-28T14:15:52.506Z,29.27
2019-02-28T14:18:23.297Z,16.37
2019-02-28T14:20:59.505Z,16.27
2019-02-28T14:23:29.727Z,17.00
2019-02-28T14:26:03.538Z,19.53
2019-02-28T14:35:22.737Z,13.53
2019-02-28T14:37:56.914Z,16.90
2019-02-28T14:40:28.998Z,14.37
2019-02-28T14:43:01.276Z,15.43
2019-02-28T14:45:33.133Z,15.50
2019-02-28T14:48:05.193Z,14.23
2019-02-28T14:50:40.053Z,10.87
2019-02-28T14:53:14.412Z,12.53
2019-02-28T14:55:44.924Z,17.63
2019-02-28T14:58:16.557Z,17.77
2019-02-28T15:00:48.093Z,21.03
2019-02-28T15:03:20.979Z,22.73
2019-02-28T15:05:55.409Z,17.57
2019-02-28T15:08:31.574Z,14.97
2019-02-28T15:11:03.210Z,14.40
2019-02-28T15:13:35.124Z,14.60
2019-02-28T15:16:06.795Z,17.20
2019-02-28T15:19:15.482Z,15.23
2019-02-28T15:21:51.262Z,14.53
2019-02-28T15:24:31.134Z,18.17
2019-02-28T15:27:11.631Z,18.47
2019-02-28T15:29:58.904Z,25.37
2019-02-28T15:32:45.145Z,22.17
2019-02-28T15:35:27.602Z,20.80
2019-02-28T15:38:05.801Z,24.07
2019-02-28T15:40:41.898Z,25.73
2019-02-28T15:43:18.162Z,23.30
2019-02-28T15:45:48.922Z,30.50
2019-02-28T15:48:20.783Z,24.83
2019-02-28T15:50:52.751Z,21.70
2019-02-28T15:53:24.537Z,22.30
2019-02-28T15:56:19.513Z,20.60
2019-02-28T15:58:48.318Z,19.10
2019-02-28T16:01:20.366Z,20.53
2019-02-28T16:03:52.551Z,25.87
2019-02-28T16:06:24.359Z,28.70
2019-02-28T16:08:56.386Z,25.63
2019-02-28T16:11:28.385Z,18.47
2019-02-28T16:14:00.460Z,15.30
2019-02-28T16:16:34.957Z,14.50
2019-02-28T16:19:07.061Z,20.77
2019-02-28T16:21:40.786Z,18.10
2019-02-28T16:24:11.700Z,18.67
2019-02-28T16:26:43.319Z,15.27
2019-02-28T16:29:20.375Z,17.73
2019-02-28T16:31:48.336Z,19.33
2019-02-28T16:34:19.984Z,18.42
2019-02-28T16:36:51.769Z,17.53
2019-02-28T16:39:23.499Z,18.75
2019-02-28T16:41:55.114Z,23.20
2019-02-28T16:44:27.642Z,21.68
2019-02-28T16:46:59.915Z,18.35
2019-02-28T16:49:31.539Z,17.95
2019-02-28T16:52:05.969Z,18.27
2019-02-28T16:54:47.897Z,18.55
2019-02-28T16:57:19.785Z,18.45
2019-02-28T16:59:51.251Z,18.05
2019-02-28T17:02:22.903Z,17.57
2019-02-28T17:04:54.604Z,19.35
2019-02-28T17:07:26.274Z,20.80
2019-02-28T17:09:57.872Z,21.00
2019-02-28T17:12:59.607Z,23.40
2019-02-28T17:15:48.162Z,26.95
2019-02-28T17:18:22.293Z,29.37
2019-02-28T17:20:55.253Z,29.52
2019-02-28T17:23:27.734Z,29.40
2019-02-28T17:25:59.497Z,27.93
2019-02-28T17:28:49.607Z,25.37
2019-02-28T17:31:52.365Z,23.92
2019-02-28T17:34:26.367Z,23.47
2019-02-28T17:37:06.823Z,21.77
2019-02-28T17:39:38.616Z,22.25
2019-02-28T17:42:14.800Z,20.50
2019-02-28T17:45:15.592Z,18.95
2019-02-28T17:48:34.712Z,16.52
2019-02-28T17:51:41.820Z,16.97
2019-02-28T17:54:26.078Z,15.88
2019-02-28T17:57:26.738Z,17.05
2019-02-28T18:00:31.687Z,17.82
2019-02-28T18:03:57.022Z,18.32
2019-02-28T18:07:12.720Z,18.90
2019-02-28T18:10:30.498Z,19.95
2019-02-28T18:13:46.174Z,22.42
2019-02-28T18:16:54.665Z,20.12
2019-02-28T18:20:02.812Z,22.35
2019-02-28T18:22:53.693Z,23.32
2019-02-28T18:26:06.302Z,24.37
2019-02-28T18:29:14.941Z,27.45
2019-02-28T18:31:47.062Z,26.23
2019-02-28T18:34:30.130Z,28.05
2019-02-28T18:37:01.862Z,23.80
2019-02-28T18:39:33.839Z,25.65
2019-02-28T18:42:05.692Z,27.58
2019-02-28T18:44:40.763Z,24.87
2019-02-28T18:47:11.052Z,24.75
2019-02-28T18:49:42.597Z,22.02
2019-02-28T18:52:14.239Z,22.45
2019-02-28T18:54:46.938Z,22.85
2019-02-28T18:57:34.111Z,24.30
2019-02-28T19:00:08.541Z,23.83
2019-02-28T19:02:40.089Z,22.35
2019-02-28T19:05:12.786Z,21.70
2019-02-28T19:07:45.557Z,21.35
2019-02-28T19:10:18.679Z,21.80
2019-02-28T19:12:56.273Z,28.07
2019-02-28T19:15:28.120Z,26.45
2019-02-28T19:18:01.045Z,30.25
2019-02-28T19:20:32.686Z,39.50
2019-02-28T19:23:04.524Z,37.70
2019-02-28T19:25:35.986Z,43.10
2019-02-28T19:28:07.511Z,47.98
2019-02-28T19:30:39.143Z,45.15
2019-02-28T19:33:10.834Z,49.85
2019-02-28T19:35:42.626Z,53.33
2019-02-28T19:38:14.342Z,55.90
2019-02-28T19:40:46.189Z,63.13
2019-02-28T19:43:17.793Z,67.12
2019-02-28T19:45:49.670Z,84.17
2019-02-28T19:48:21.435Z,74.70
2019-02-28T19:50:53.091Z,71.30
2019-02-28T19:53:24.751Z,68.75
2019-02-28T19:55:56.861Z,66.45
2019-02-28T19:58:28.743Z,63.05
2019-02-28T20:01:00.592Z,56.68
2019-02-28T20:03:33.598Z,58.30
2019-02-28T20:06:05.537Z,61.55
2019-02-28T20:08:37.290Z,54.30
2019-02-28T20:11:09.424Z,56.75
2019-02-28T20:13:41.408Z,63.50
2019-02-28T20:16:13.242Z,61.77
2019-02-28T20:18:44.907Z,59.70
2019-02-28T20:21:17.386Z,73.87
2019-02-28T20:23:49.343Z,81.20
2019-02-28T20:26:21.027Z,84.32
2019-02-28T20:28:52.599Z,84.20
2019-02-28T20:31:24.453Z,80.65
2019-02-28T20:33:56.142Z,87.15
2019-02-28T20:36:27.684Z,83.80
2019-02-28T20:39:18.169Z,75.55
2019-02-28T20:41:50.403Z,85.60
2019-02-28T20:44:22.109Z,92.82
2019-02-28T20:46:55.095Z,89.62
2019-02-28T20:49:26.947Z,78.83
2019-02-28T20:51:58.772Z,71.87
2019-02-28T20:54:30.686Z,60.55
2019-02-28T20:57:02.521Z,54.42
2019-02-28T20:59:35.601Z,53.20
2019-02-28T21:02:07.232Z,51.10
2019-02-28T21:04:40.192Z,54.90
2019-02-28T21:07:12.887Z,52.90
2019-02-28T21:09:45.836Z,60.23
2019-02-28T21:12:17.446Z,55.50
2019-02-28T21:14:49.121Z,55.30
2019-02-28T21:17:29.220Z,77.03
2019-02-28T21:19:53.915Z,73.20
2019-02-28T21:22:25.731Z,65.00
2019-02-28T21:24:57.433Z,56.10
2019-02-28T21:27:30.281Z,59.83
2019-02-28T21:30:02.220Z,59.58
2019-02-28T21:32:35.279Z,59.27
2019-02-28T21:35:07.443Z,59.50
2019-02-28T21:37:40.612Z,57.33
2019-02-28T21:40:13.076Z,59.55
2019-02-28T21:42:44.719Z,60.50
2019-02-28T21:45:18.618Z,60.85
2019-02-28T21:47:50.453Z,61.92
2019-02-28T21:50:22.284Z,54.48
2019-02-28T21:52:54.071Z,53.98
2019-02-28T21:55:25.780Z,52.23
2019-02-28T21:57:57.658Z,52.73
2019-02-28T22:00:29.660Z,52.03
2019-02-28T22:03:01.513Z,52.60
2019-02-28T22:05:33.266Z,53.50
2019-02-28T22:08:05.440Z,49.00
2019-02-28T22:10:37.811Z,47.30
2019-02-28T22:13:09.530Z,57.38
2019-02-28T22:15:40.961Z,56.35
2019-02-28T22:18:12.578Z,51.37
2019-02-28T22:20:44.110Z,52.27
2019-02-28T22:23:15.683Z,43.60
2019-02-28T22:25:48.149Z,44.40
2019-02-28T22:28:19.756Z,43.00
2019-02-28T22:31:09.959Z,44.95
2019-02-28T22:33:48.147Z,45.15
2019-02-28T22:36:27.135Z,44.63
2019-02-28T22:38:58.731Z,43.00
2019-02-28T22:41:31.349Z,43.20
2019-02-28T22:44:03.020Z,42.98
2019-02-28T22:46:34.726Z,40.10
2019-02-28T22:49:06.269Z,39.65
2019-02-28T22:51:38.148Z,36.73
2019-02-28T22:54:09.824Z,33.28
2019-02-28T22:56:41.416Z,30.65
2019-02-28T22:59:12.962Z,33.13
2019-02-28T23:01:44.878Z,34.58
2019-02-28T23:04:16.654Z,31.68
2019-02-28T23:06:48.325Z,32.67
2019-02-28T23:09:20.105Z,32.78
2019-02-28T23:11:51.695Z,30.95
2019-02-28T23:14:23.472Z,29.10
2019-02-28T23:16:56.115Z,29.67
2019-02-28T23:19:27.851Z,28.35
2019-02-28T23:22:00.314Z,31.02
2019-02-28T23:24:32.021Z,29.63
2019-02-28T23:27:15.752Z,30.45
2019-02-28T23:30:12.687Z,29.82
2019-02-28T23:33:06.069Z,31.42
2019-02-28T23:35:40.906Z,32.03
2019-02-28T23:38:12.813Z,32.60
2019-02-28T23:40:44.496Z,33.28
2019-02-28T23:43:15.845Z,31.80
2019-02-28T23:45:47.352Z,32.67
2019-02-28T23:48:19.800Z,31.70
2019-02-28T23:50:52.535Z,31.23
2019-02-28T23:53:25.637Z,31.35
2019-02-28T23:55:57.390Z,32.38
2019-02-28T23:58:29.218Z,32.95
